Time;durP1;ratioP1;P1;durP2;ratioP2;P2;SDS_P1;SDS_P2;PMS_P1;PMS_P2;Temp;Humidity;BMP_temperature;BMP_pressure;BME280_temperature;BME280_humidity;BME280_pressure;Samples;Min_cycle;Max_cycle;Signal;HPM_P1;HPM_P2
2022/12/29 00:02:16;;;;;;;1.38;0.90;;;;;;;;;;5074980;28;20351;-80
2022/12/29 00:04:41;;;;;;;0.88;0.88;;;;;;;;;;5092519;28;20107;-80
2022/12/29 00:07:07;;;;;;;3.63;1.10;;;;;;;;;;5096209;28;20470;-80
2022/12/29 00:09:33;;;;;;;1.58;0.90;;;;;;;;;;5077998;28;20433;-81
2022/12/29 00:12:00;;;;;;;0.90;0.90;;;;;;;;;;5095249;28;20482;-80
2022/12/29 00:17:09;;;;;;;1.88;1.00;;;;;;;;;;5096138;28;20447;-80
2022/12/29 00:36:16;;;;;;;0.95;0.88;;;;;;;;;;5095055;28;20038;-80
2022/12/29 00:44:15;;;;;;;3.58;0.85;;;;;;;;;;5095472;28;20504;-80
2022/12/29 00:46:42;;;;;;;2.70;0.90;;;;;;;;;;5077311;28;20036;-80
2022/12/29 00:51:54;;;;;;;1.10;0.90;;;;;;;;;;5094657;28;20113;-80
2022/12/29 00:54:20;;;;;;;0.70;0.70;;;;;;;;;;5077094;28;20406;-79
2022/12/29 00:56:49;;;;;;;1.10;1.00;;;;;;;;;;5077189;28;20096;-79
2022/12/29 00:59:15;;;;;;;2.15;0.77;;;;;;;;;;5094034;28;20034;-79
2022/12/29 01:01:41;;;;;;;2.50;0.82;;;;;;;;;;5076869;28;20413;-80
2022/12/29 01:04:07;;;;;;;0.90;0.90;;;;;;;;;;5093830;28;20537;-80
2022/12/29 01:06:33;;;;;;;1.02;0.90;;;;;;;;;;5094179;28;20028;-80
2022/12/29 01:11:43;;;;;;;0.70;0.70;;;;;;;;;;5094177;28;20051;-79
2022/12/29 01:14:08;;;;;;;0.90;0.80;;;;;;;;;;5095092;28;20032;-80
2022/12/29 01:16:36;;;;;;;1.15;0.90;;;;;;;;;;5094471;28;20036;-80
2022/12/29 01:19:02;;;;;;;1.25;0.90;;;;;;;;;;5094847;28;20519;-79
2022/12/29 01:21:28;;;;;;;1.02;0.90;;;;;;;;;;5093847;28;20115;-79
2022/12/29 01:23:53;;;;;;;0.70;0.70;;;;;;;;;;5094960;28;20154;-79
2022/12/29 01:26:18;;;;;;;1.13;1.00;;;;;;;;;;5093568;28;20035;-80
2022/12/29 01:28:44;;;;;;;0.70;0.70;;;;;;;;;;5093359;28;20028;-80
2022/12/29 01:31:10;;;;;;;2.65;0.90;;;;;;;;;;5093356;28;20027;-80
2022/12/29 01:33:36;;;;;;;1.17;1.08;;;;;;;;;;5094570;28;20479;-80
2022/12/29 01:36:07;;;;;;;0.98;0.80;;;;;;;;;;5093249;28;20024;-80
2022/12/29 01:38:33;;;;;;;0.82;0.82;;;;;;;;;;5076173;28;20016;-80
2022/12/29 01:40:59;;;;;;;1.48;1.10;;;;;;;;;;5093439;28;20035;-80
2022/12/29 01:43:48;;;;;;;1.42;0.70;;;;;;;;;;5093054;28;20395;-80
2022/12/29 01:46:35;;;;;;;1.27;0.88;;;;;;;;;;5076293;28;20111;-80
2022/12/29 01:49:09;;;;;;;1.13;0.90;;;;;;;;;;5076074;28;20134;-80
2022/12/29 01:51:41;;;;;;;;;;;;;;;;;;5076675;28;20032;-78
2022/12/29 01:54:11;;;;;;;1.10;0.80;;;;;;;;;;5094342;28;19926;-80
2022/12/29 01:56:37;;;;;;;1.85;0.82;;;;;;;;;;5092904;28;20016;-80
2022/12/29 01:59:06;;;;;;;0.80;0.80;;;;;;;;;;5093129;28;20078;-80
2022/12/29 02:01:32;;;;;;;1.48;0.90;;;;;;;;;;5092672;28;20055;-80
2022/12/29 02:03:58;;;;;;;0.57;0.57;;;;;;;;;;5094008;28;20051;-80
2022/12/29 02:06:31;;;;;;;0.65;0.60;;;;;;;;;;5092778;28;20483;-79
2022/12/29 02:08:57;;;;;;;0.88;0.77;;;;;;;;;;5093130;28;20418;-80
2022/12/29 02:11:26;;;;;;;0.75;0.75;;;;;;;;;;5075657;28;20051;-79
2022/12/29 02:13:51;;;;;;;2.53;0.73;;;;;;;;;;5075747;28;20046;-79
2022/12/29 02:16:16;;;;;;;3.55;0.63;;;;;;;;;;5092458;28;20467;-79
2022/12/29 02:18:48;;;;;;;0.63;0.63;;;;;;;;;;5094010;28;20030;-79
2022/12/29 02:21:16;;;;;;;1.80;0.80;;;;;;;;;;5093956;28;20047;-79
2022/12/29 02:24:14;;;;;;;3.13;0.90;;;;;;;;;;5093892;28;20059;-80
2022/12/29 02:26:53;;;;;;;0.75;0.73;;;;;;;;;;5092551;28;20024;-80
2022/12/29 02:29:21;;;;;;;0.73;0.65;;;;;;;;;;5074866;28;20413;-80
2022/12/29 02:31:56;;;;;;;0.88;0.70;;;;;;;;;;5093510;28;20422;-80
2022/12/29 02:34:36;;;;;;;1.73;0.73;;;;;;;;;;5092474;28;20158;-80
2022/12/29 02:37:26;;;;;;;0.95;0.60;;;;;;;;;;5093440;28;20488;-79
2022/12/29 02:40:07;;;;;;;0.50;0.45;;;;;;;;;;5092677;28;20115;-80
2022/12/29 02:42:41;;;;;;;0.60;0.60;;;;;;;;;;5092095;28;20072;-80
2022/12/29 02:45:44;;;;;;;0.73;0.55;;;;;;;;;;5093386;28;20028;-80
2022/12/29 02:48:24;;;;;;;1.40;0.70;;;;;;;;;;5093137;28;20032;-79
2022/12/29 02:50:56;;;;;;;0.70;0.70;;;;;;;;;;5092002;28;20020;-80
2022/12/29 02:54:40;;;;;;;0.85;0.77;;;;;;;;;;5074660;28;20047;-79
2022/12/29 02:56:08;;;;;;;1.05;0.70;;;;;;;;;;5091795;28;20044;-80
2022/12/29 02:58:33;;;;;;;4.13;0.95;;;;;;;;;;5091789;28;20031;-79
2022/12/29 03:01:26;;;;;;;1.00;0.65;;;;;;;;;;5074603;28;20042;-79
2022/12/29 03:03:52;;;;;;;1.30;0.90;;;;;;;;;;5093013;28;20398;-80
2022/12/29 03:06:26;;;;;;;2.20;0.63;;;;;;;;;;5091961;28;20107;-80
2022/12/29 03:09:07;;;;;;;14.80;0.73;;;;;;;;;;5093205;28;20379;-79
2022/12/29 03:17:31;;;;;;;1.08;0.70;;;;;;;;;;5092050;28;20039;-80
2022/12/29 03:20:03;;;;;;;1.08;0.65;;;;;;;;;;5093105;28;20078;-80
2022/12/29 03:22:31;;;;;;;1.17;0.63;;;;;;;;;;5091973;28;20024;-80
2022/12/29 03:25:13;;;;;;;0.50;0.50;;;;;;;;;;5092064;28;20030;-80
2022/12/29 03:27:49;;;;;;;1.42;0.60;;;;;;;;;;5074804;28;20028;-80
2022/12/29 03:30:15;;;;;;;1.83;0.65;;;;;;;;;;5074914;28;20047;-80
2022/12/29 03:33:10;;;;;;;0.95;0.80;;;;;;;;;;5074964;28;20176;-80
2022/12/29 03:35:37;;;;;;;0.77;0.55;;;;;;;;;;5089753;28;20051;-80
2022/12/29 03:38:16;;;;;;;0.63;0.60;;;;;;;;;;5074596;28;20028;-80
2022/12/29 03:40:44;;;;;;;1.27;0.70;;;;;;;;;;5077568;28;20114;-80
2022/12/29 03:43:10;;;;;;;1.00;0.68;;;;;;;;;;5078455;28;20031;-80
2022/12/29 03:45:35;;;;;;;1.15;0.75;;;;;;;;;;5078433;28;20127;-80
2022/12/29 03:48:00;;;;;;;0.50;0.50;;;;;;;;;;5078431;28;20028;-80
2022/12/29 03:50:26;;;;;;;0.90;0.57;;;;;;;;;;5078323;28;20032;-80
2022/12/29 03:52:51;;;;;;;0.75;0.43;;;;;;;;;;5096633;28;20028;-80
2022/12/29 03:55:16;;;;;;;0.55;0.52;;;;;;;;;;5096463;28;20052;-80
2022/12/29 03:57:42;;;;;;;0.55;0.55;;;;;;;;;;5095612;28;20470;-80
2022/12/29 04:00:08;;;;;;;2.35;0.68;;;;;;;;;;5078170;28;20032;-80
2022/12/29 04:02:33;;;;;;;1.75;0.82;;;;;;;;;;5078790;28;20040;-80
2022/12/29 04:04:59;;;;;;;1.13;0.90;;;;;;;;;;5096386;28;20085;-80
2022/12/29 04:07:24;;;;;;;0.60;0.60;;;;;;;;;;5094978;28;20051;-79
2022/12/29 04:09:50;;;;;;;0.70;0.50;;;;;;;;;;5096525;28;20024;-80
2022/12/29 04:12:16;;;;;;;1.20;0.60;;;;;;;;;;5095079;28;20526;-80
2022/12/29 04:14:41;;;;;;;0.73;0.73;;;;;;;;;;5095034;28;20023;-80
2022/12/29 04:17:06;;;;;;;0.95;0.60;;;;;;;;;;5096209;28;20220;-80
2022/12/29 04:19:32;;;;;;;1.83;0.60;;;;;;;;;;5095091;28;20447;-80
2022/12/29 04:21:57;;;;;;;1.00;0.60;;;;;;;;;;5096526;28;20107;-80
2022/12/29 04:24:23;;;;;;;0.82;0.57;;;;;;;;;;5096478;28;20050;-81
2022/12/29 04:26:48;;;;;;;0.60;0.57;;;;;;;;;;5094773;28;20489;-80
2022/12/29 04:29:13;;;;;;;1.23;0.50;;;;;;;;;;5096959;28;20028;-78
2022/12/29 04:31:39;;;;;;;0.60;0.60;;;;;;;;;;5094645;28;20451;-80
2022/12/29 04:34:04;;;;;;;0.80;0.57;;;;;;;;;;5096410;28;20028;-80
2022/12/29 04:36:30;;;;;;;1.77;0.55;;;;;;;;;;5096175;28;20036;-80
2022/12/29 04:38:55;;;;;;;1.00;0.70;;;;;;;;;;5077214;28;20039;-80
2022/12/29 04:41:20;;;;;;;1.17;0.77;;;;;;;;;;5095677;28;20059;-80
2022/12/29 04:43:46;;;;;;;1.38;0.70;;;;;;;;;;5094274;28;20086;-80
2022/12/29 04:46:11;;;;;;;0.98;0.77;;;;;;;;;;5094158;28;20055;-80
2022/12/29 04:48:36;;;;;;;1.50;0.70;;;;;;;;;;5094650;28;20058;-80
2022/12/29 04:51:02;;;;;;;0.50;0.50;;;;;;;;;;5094390;28;20115;-80
2022/12/29 04:53:27;;;;;;;1.23;0.80;;;;;;;;;;5094082;28;20394;-80
2022/12/29 04:55:53;;;;;;;2.15;0.80;;;;;;;;;;5094265;28;20052;-80
2022/12/29 04:58:19;;;;;;;1.08;0.60;;;;;;;;;;5077193;28;20039;-80
2022/12/29 05:00:45;;;;;;;1.88;0.73;;;;;;;;;;5077054;28;20115;-80
2022/12/29 05:03:10;;;;;;;3.15;0.88;;;;;;;;;;5095097;28;20177;-80
2022/12/29 05:05:35;;;;;;;2.53;0.70;;;;;;;;;;5094259;28;20023;-80
2022/12/29 05:08:01;;;;;;;2.45;1.05;;;;;;;;;;5094195;28;20406;-80
2022/12/29 05:10:26;;;;;;;1.70;0.85;;;;;;;;;;5095468;28;20059;-80
2022/12/29 05:12:52;;;;;;;1.60;0.90;;;;;;;;;;5094480;28;20024;-80
2022/12/29 05:15:17;;;;;;;2.95;0.88;;;;;;;;;;5094688;28;20459;-79
2022/12/29 05:17:43;;;;;;;2.00;1.10;;;;;;;;;;5093980;28;20067;-80
2022/12/29 05:20:08;;;;;;;7.10;0.95;;;;;;;;;;5077086;28;20028;-79
2022/12/29 05:22:34;;;;;;;2.30;0.70;;;;;;;;;;5093972;28;20024;-80
2022/12/29 05:24:59;;;;;;;4.07;1.08;;;;;;;;;;5093971;28;20085;-80
2022/12/29 05:27:25;;;;;;;2.05;1.00;;;;;;;;;;5094077;28;20024;-80
2022/12/29 05:29:50;;;;;;;2.90;1.02;;;;;;;;;;5076964;28;20063;-80
2022/12/29 05:32:16;;;;;;;2.20;1.00;;;;;;;;;;5095728;28;20028;-79
2022/12/29 05:34:41;;;;;;;1.48;1.00;;;;;;;;;;5094283;28;20111;-79
2022/12/29 05:37:06;;;;;;;2.05;0.90;;;;;;;;;;5094097;28;20692;-80
2022/12/29 05:39:32;;;;;;;5.45;1.35;;;;;;;;;;5094427;28;20028;-79
2022/12/29 05:41:57;;;;;;;3.38;1.23;;;;;;;;;;5094196;28;20047;-79
2022/12/29 05:44:23;;;;;;;6.75;1.35;;;;;;;;;;5094055;28;20634;-80
2022/12/29 05:46:48;;;;;;;1.85;1.00;;;;;;;;;;5094098;28;20031;-79
2022/12/29 05:49:13;;;;;;;4.07;1.35;;;;;;;;;;5092854;28;20039;-80
2022/12/29 05:51:39;;;;;;;2.20;1.02;;;;;;;;;;5092801;28;20482;-81
2022/12/29 05:54:04;;;;;;;2.38;0.93;;;;;;;;;;5092425;28;20047;-80
2022/12/29 05:56:30;;;;;;;3.30;1.10;;;;;;;;;;5059333;28;20028;-80
2022/12/29 05:58:55;;;;;;;4.03;1.33;;;;;;;;;;5093807;28;20085;-80
2022/12/29 06:01:20;;;;;;;2.17;1.27;;;;;;;;;;5092438;28;20643;-79
2022/12/29 06:03:46;;;;;;;5.43;1.40;;;;;;;;;;5093351;28;20467;-80
2022/12/29 06:06:11;;;;;;;4.95;1.60;;;;;;;;;;5093722;28;20038;-80
2022/12/29 06:08:37;;;;;;;12.60;1.75;;;;;;;;;;5092376;28;20515;-80
2022/12/29 06:11:02;;;;;;;4.90;1.60;;;;;;;;;;5093670;28;20032;-80
2022/12/29 06:13:27;;;;;;;10.68;1.70;;;;;;;;;;5093567;28;20028;-80
2022/12/29 06:15:53;;;;;;;5.70;1.40;;;;;;;;;;5093517;28;20034;-80
2022/12/29 06:18:18;;;;;;;4.95;1.33;;;;;;;;;;5093501;28;20027;-80
2022/12/29 06:20:44;;;;;;;8.02;1.30;;;;;;;;;;5092307;28;20389;-82
2022/12/29 06:23:09;;;;;;;7.38;1.67;;;;;;;;;;5092121;28;20020;-80
2022/12/29 06:25:35;;;;;;;3.75;1.20;;;;;;;;;;5093352;28;20028;-80
2022/12/29 06:28:01;;;;;;;3.38;1.33;;;;;;;;;;5093435;28;20094;-79
2022/12/29 06:30:26;;;;;;;2.88;0.95;;;;;;;;;;5093293;28;20479;-79
2022/12/29 06:32:52;;;;;;;8.45;1.52;;;;;;;;;;5092199;28;20036;-80
2022/12/29 06:35:17;;;;;;;9.98;1.20;;;;;;;;;;5075094;28;20077;-79
2022/12/29 06:37:43;;;;;;;4.70;1.10;;;;;;;;;;5093139;28;20051;-80
2022/12/29 06:40:09;;;;;;;19.02;1.42;;;;;;;;;;5091903;28;20020;-77
2022/12/29 06:42:35;;;;;;;3.28;1.30;;;;;;;;;;5091781;28;20032;-76
2022/12/29 06:45:00;;;;;;;3.30;1.35;;;;;;;;;;5093054;28;20043;-77
2022/12/29 06:47:26;;;;;;;6.35;1.17;;;;;;;;;;5091901;28;20028;-80
2022/12/29 06:49:52;;;;;;;3.17;1.05;;;;;;;;;;5091894;28;20024;-80
2022/12/29 06:52:17;;;;;;;7.05;1.20;;;;;;;;;;5074722;28;20455;-80
2022/12/29 06:54:42;;;;;;;5.63;1.35;;;;;;;;;;5092802;28;20055;-81
2022/12/29 06:57:08;;;;;;;6.15;1.73;;;;;;;;;;5091742;28;20471;-80
2022/12/29 06:59:33;;;;;;;3.55;1.08;;;;;;;;;;5074891;28;20035;-81
2022/12/29 07:01:59;;;;;;;5.20;1.58;;;;;;;;;;5091545;28;20036;-81
2022/12/29 07:04:24;;;;;;;3.88;1.35;;;;;;;;;;5092806;28;20048;-81
2022/12/29 07:06:49;;;;;;;5.53;1.23;;;;;;;;;;5091596;28;20421;-81
2022/12/29 07:09:15;;;;;;;2.80;1.20;;;;;;;;;;5093188;28;20024;-81
2022/12/29 07:11:40;;;;;;;2.45;1.00;;;;;;;;;;5092541;28;20024;-81
2022/12/29 07:14:06;;;;;;;3.30;1.15;;;;;;;;;;5092794;28;20073;-81
2022/12/29 07:16:32;;;;;;;2.92;1.20;;;;;;;;;;5097804;28;20058;-81
2022/12/29 07:18:59;;;;;;;4.25;1.15;;;;;;;;;;5097698;28;20032;-81
2022/12/29 07:21:24;;;;;;;2.33;1.10;;;;;;;;;;5096660;28;20081;-81
2022/12/29 07:23:50;;;;;;;4.40;1.23;;;;;;;;;;5096144;28;20028;-81
2022/12/29 07:26:17;;;;;;;3.28;0.98;;;;;;;;;;5096554;28;20028;-80
2022/12/29 07:28:43;;;;;;;3.00;1.20;;;;;;;;;;5096210;28;20106;-81
2022/12/29 07:31:17;;;;;;;3.25;1.30;;;;;;;;;;5096329;28;20347;-81
2022/12/29 07:33:44;;;;;;;2.67;1.23;;;;;;;;;;5096243;28;20474;-80
2022/12/29 07:36:10;;;;;;;4.78;1.33;;;;;;;;;;5097597;28;20386;-81
2022/12/29 07:38:36;;;;;;;3.53;1.38;;;;;;;;;;5078993;28;20553;-81
2022/12/29 07:41:01;;;;;;;3.95;1.20;;;;;;;;;;5096190;28;20161;-81
2022/12/29 07:43:27;;;;;;;1.55;0.80;;;;;;;;;;5095728;28;20088;-81
2022/12/29 07:45:53;;;;;;;3.97;1.30;;;;;;;;;;5095768;28;20028;-81
2022/12/29 07:48:18;;;;;;;2.83;1.13;;;;;;;;;;5078728;28;20032;-81
2022/12/29 07:50:43;;;;;;;4.35;1.20;;;;;;;;;;5096924;28;20032;-81
2022/12/29 07:53:09;;;;;;;2.33;1.13;;;;;;;;;;5095807;28;20034;-81
2022/12/29 07:55:34;;;;;;;2.08;0.98;;;;;;;;;;5095332;28;20551;-81
2022/12/29 07:58:00;;;;;;;2.85;1.13;;;;;;;;;;5095962;28;20115;-81
2022/12/29 08:00:25;;;;;;;3.70;1.00;;;;;;;;;;5097409;28;20043;-81
2022/12/29 08:02:51;;;;;;;3.22;1.02;;;;;;;;;;5095744;28;20047;-81
2022/12/29 08:05:16;;;;;;;3.53;1.00;;;;;;;;;;5095387;28;20541;-81
2022/12/29 08:07:45;;;;;;;4.18;1.38;;;;;;;;;;5078682;28;20020;-81
2022/12/29 08:10:11;;;;;;;2.47;1.10;;;;;;;;;;5095686;28;20031;-80
2022/12/29 08:12:41;;;;;;;3.13;1.10;;;;;;;;;;5078443;28;20115;-79
2022/12/29 08:15:07;;;;;;;1.60;1.00;;;;;;;;;;5095621;28;20093;-79
2022/12/29 08:17:33;;;;;;;5.38;1.20;;;;;;;;;;5095153;28;20043;-79
2022/12/29 08:19:58;;;;;;;3.40;1.13;;;;;;;;;;5095222;28;20078;-79
2022/12/29 08:22:24;;;;;;;3.42;1.02;;;;;;;;;;5095072;28;20036;-83
2022/12/29 08:24:49;;;;;;;1.67;0.88;;;;;;;;;;5095188;28;20028;-80
2022/12/29 08:27:15;;;;;;;1.60;1.02;;;;;;;;;;5096167;28;20031;-80
2022/12/29 08:29:40;;;;;;;3.90;0.90;;;;;;;;;;5096250;28;20115;-80
2022/12/29 08:32:06;;;;;;;2.45;1.08;;;;;;;;;;5095399;28;20028;-79
2022/12/29 08:34:32;;;;;;;1.75;0.98;;;;;;;;;;5094870;28;20031;-80
2022/12/29 08:36:57;;;;;;;2.47;1.17;;;;;;;;;;5094869;28;20032;-80
2022/12/29 08:39:22;;;;;;;2.83;1.08;;;;;;;;;;5096081;28;20032;-80
2022/12/29 08:41:48;;;;;;;2.05;1.10;;;;;;;;;;5061247;28;20112;-80
2022/12/29 08:44:13;;;;;;;2.88;1.10;;;;;;;;;;5077816;28;20036;-80
2022/12/29 08:46:39;;;;;;;2.75;1.30;;;;;;;;;;5094624;28;20473;-78
2022/12/29 08:49:04;;;;;;;3.10;1.20;;;;;;;;;;5095979;28;20487;-80
2022/12/29 08:51:30;;;;;;;5.70;1.50;;;;;;;;;;5095972;28;20082;-79
2022/12/29 08:53:55;;;;;;;3.17;1.30;;;;;;;;;;5077661;28;20020;-77
2022/12/29 08:56:23;;;;;;;4.10;1.40;;;;;;;;;;5094490;28;20052;-78
2022/12/29 08:58:49;;;;;;;6.55;1.20;;;;;;;;;;5095878;28;20059;-79
2022/12/29 09:01:15;;;;;;;4.28;1.52;;;;;;;;;;5094384;28;20110;-80
2022/12/29 09:03:40;;;;;;;3.55;1.50;;;;;;;;;;5094546;28;20444;-80
2022/12/29 09:06:06;;;;;;;3.28;1.20;;;;;;;;;;5095940;28;20028;-79
2022/12/29 09:08:32;;;;;;;4.93;1.42;;;;;;;;;;5095737;28;20024;-79
2022/12/29 09:11:09;;;;;;;8.23;1.40;;;;;;;;;;5095870;28;20471;-79
2022/12/29 09:13:34;;;;;;;5.15;1.30;;;;;;;;;;5094671;28;20027;-79
2022/12/29 09:16:00;;;;;;;4.38;1.33;;;;;;;;;;5094394;28;20032;-79
2022/12/29 09:18:25;;;;;;;2.50;1.35;;;;;;;;;;5094245;28;20107;-79
2022/12/29 09:20:56;;;;;;;4.10;1.23;;;;;;;;;;5094042;28;20032;-79
2022/12/29 09:23:22;;;;;;;3.13;1.38;;;;;;;;;;5095652;28;20028;-80
2022/12/29 09:25:47;;;;;;;5.25;1.27;;;;;;;;;;5093925;28;20115;-81
2022/12/29 09:28:12;;;;;;;3.00;1.40;;;;;;;;;;5095253;28;20043;-80
2022/12/29 09:30:39;;;;;;;3.72;1.40;;;;;;;;;;5077810;28;20028;-80
2022/12/29 09:33:04;;;;;;;2.90;1.35;;;;;;;;;;5094599;28;20039;-80
2022/12/29 09:35:30;;;;;;;6.13;1.48;;;;;;;;;;5094055;28;20031;-80
2022/12/29 09:37:55;;;;;;;4.70;1.45;;;;;;;;;;5093165;28;20034;-80
2022/12/29 09:40:29;;;;;;;8.52;1.35;;;;;;;;;;5093921;28;20031;-80
2022/12/29 09:43:16;;;;;;;3.35;1.33;;;;;;;;;;5093851;28;20028;-80
2022/12/29 09:45:49;;;;;;;5.63;1.58;;;;;;;;;;5093785;28;20032;-80
2022/12/29 09:48:21;;;;;;;3.55;1.65;;;;;;;;;;5094686;28;20110;-80
2022/12/29 09:50:53;;;;;;;3.65;1.30;;;;;;;;;;5093495;28;20039;-80
2022/12/29 09:53:29;;;;;;;3.95;1.45;;;;;;;;;;5093251;28;20055;-83
2022/12/29 09:55:57;;;;;;;5.75;1.48;;;;;;;;;;5093060;28;20058;-84
2022/12/29 09:58:33;;;;;;;3.47;1.30;;;;;;;;;;5110287;28;20027;-85
2022/12/29 10:01:21;;;;;;;7.43;1.42;;;;;;;;;;5114896;28;20072;-84
2022/12/29 10:03:49;;;;;;;1.92;1.10;;;;;;;;;;5109149;28;20034;-83
2022/12/29 10:06:18;;;;;;;3.58;1.20;;;;;;;;;;5114823;28;20482;-83
2022/12/29 10:09:21;;;;;;;5.22;1.40;;;;;;;;;;5097000;28;20118;-82
2022/12/29 10:12:08;;;;;;;4.80;1.38;;;;;;;;;;5113673;28;20059;-83
2022/12/29 10:14:52;;;;;;;3.30;1.35;;;;;;;;;;5114408;28;20020;-82
2022/12/29 10:17:57;;;;;;;5.05;1.30;;;;;;;;;;5113337;28;20034;-82
2022/12/29 10:20:36;;;;;;;6.78;1.35;;;;;;;;;;5072986;28;20074;-82
2022/12/29 10:23:22;;;;;;;3.95;1.05;;;;;;;;;;5098280;28;20028;-82
2022/12/29 10:25:47;;;;;;;7.43;1.27;;;;;;;;;;5117749;28;20027;-82
2022/12/29 10:28:23;;;;;;;3.90;1.67;;;;;;;;;;5114671;28;20427;-82
2022/12/29 10:30:50;;;;;;;3.95;1.55;;;;;;;;;;5115777;28;20096;-80
2022/12/29 10:33:20;;;;;;;3.88;1.30;;;;;;;;;;5114447;28;20112;-84
2022/12/29 10:35:47;;;;;;;4.50;1.48;;;;;;;;;;5120459;28;20028;-85
2022/12/29 10:38:42;;;;;;;3.78;1.20;;;;;;;;;;5119257;28;20386;-84
2022/12/29 10:41:18;;;;;;;2.03;1.20;;;;;;;;;;5116240;28;20470;-84
2022/12/29 10:43:47;;;;;;;2.88;1.10;;;;;;;;;;5114856;28;20028;-83
2022/12/29 10:46:16;;;;;;;3.50;1.23;;;;;;;;;;5115404;28;20027;-85
2022/12/29 10:48:45;;;;;;;4.80;1.00;;;;;;;;;;5112663;28;20541;-84
2022/12/29 10:51:11;;;;;;;1.65;1.10;;;;;;;;;;5113103;28;20034;-84
2022/12/29 10:53:50;;;;;;;4.43;1.40;;;;;;;;;;5075485;28;20045;-84
2022/12/29 10:56:29;;;;;;;2.42;1.17;;;;;;;;;;5109466;28;20059;-85
2022/12/29 10:58:58;;;;;;;2.22;1.00;;;;;;;;;;5107589;28;20028;-84
2022/12/29 11:01:32;;;;;;;3.80;1.63;;;;;;;;;;5095975;28;20039;-83
2022/12/29 11:04:28;;;;;;;3.53;0.95;;;;;;;;;;5112472;28;20042;-83
2022/12/29 11:06:54;;;;;;;4.22;1.02;;;;;;;;;;5112802;28;20576;-83
2022/12/29 11:09:25;;;;;;;5.95;1.20;;;;;;;;;;5112459;28;20032;-79
2022/12/29 11:11:51;;;;;;;4.38;1.20;;;;;;;;;;5112377;28;20031;-79
2022/12/29 11:14:25;;;;;;;6.75;1.30;;;;;;;;;;5092043;28;20034;-83
2022/12/29 11:16:58;;;;;;;3.05;1.40;;;;;;;;;;5109076;28;20020;-79
2022/12/29 11:19:26;;;;;;;2.45;1.10;;;;;;;;;;5112394;28;20059;-82
2022/12/29 11:21:52;;;;;;;3.53;1.13;;;;;;;;;;5095617;28;20032;-83
2022/12/29 11:24:21;;;;;;;2.13;1.30;;;;;;;;;;5111907;28;20026;-81
2022/12/29 11:26:49;;;;;;;3.38;1.10;;;;;;;;;;5112452;28;20028;-80
2022/12/29 11:29:20;;;;;;;2.38;1.15;;;;;;;;;;5113646;28;20034;-80
2022/12/29 11:31:50;;;;;;;2.60;1.10;;;;;;;;;;5112738;28;20039;-79
2022/12/29 11:34:30;;;;;;;2.60;1.10;;;;;;;;;;5113580;28;20072;-79
2022/12/29 11:37:17;;;;;;;5.80;1.23;;;;;;;;;;5095434;28;20051;-80
2022/12/29 11:39:59;;;;;;;3.25;1.30;;;;;;;;;;5113216;28;20027;-80
2022/12/29 11:42:39;;;;;;;3.30;1.33;;;;;;;;;;5097562;28;20114;-80
2022/12/29 11:45:20;;;;;;;5.75;1.30;;;;;;;;;;5117197;28;20073;-78
2022/12/29 11:47:49;;;;;;;4.38;1.42;;;;;;;;;;5115353;28;20514;-81
2022/12/29 11:50:24;;;;;;;3.45;1.30;;;;;;;;;;5100567;28;20032;-81
2022/12/29 11:52:57;;;;;;;3.03;1.55;;;;;;;;;;5096438;28;20039;-78
2022/12/29 11:55:24;;;;;;;3.00;1.42;;;;;;;;;;5097618;28;20382;-80
2022/12/29 11:57:52;;;;;;;5.05;1.77;;;;;;;;;;5114960;28;20034;-78
2022/12/29 12:00:27;;;;;;;3.95;1.55;;;;;;;;;;5096083;28;20027;-80
2022/12/29 12:03:02;;;;;;;3.47;1.50;;;;;;;;;;5116222;28;20042;-79
2022/12/29 12:05:41;;;;;;;3.30;1.33;;;;;;;;;;5116207;28;20020;-80
2022/12/29 12:08:11;;;;;;;4.65;1.58;;;;;;;;;;5098718;28;20047;-80
2022/12/29 12:10:44;;;;;;;6.20;1.75;;;;;;;;;;5115988;28;20033;-80
2022/12/29 12:13:37;;;;;;;5.07;1.60;;;;;;;;;;5098833;28;20024;-79
2022/12/29 12:16:24;;;;;;;4.03;1.73;;;;;;;;;;5115761;28;20020;-79
2022/12/29 12:19:08;;;;;;;7.43;2.13;;;;;;;;;;5115209;28;20047;-80
2022/12/29 12:21:42;;;;;;;5.50;2.50;;;;;;;;;;5116853;28;20020;-79
2022/12/29 12:24:35;;;;;;;9.77;4.05;;;;;;;;;;5115773;28;20024;-78
2022/12/29 12:27:13;;;;;;;13.98;5.30;;;;;;;;;;5117034;28;20466;-80
2022/12/29 12:30:01;;;;;;;18.20;7.57;;;;;;;;;;5115407;28;20040;-79
2022/12/29 12:32:37;;;;;;;19.13;8.23;;;;;;;;;;5116922;28;20034;-79
2022/12/29 12:35:03;;;;;;;24.15;9.82;;;;;;;;;;5116697;28;20019;-79
2022/12/29 12:37:40;;;;;;;20.83;9.00;;;;;;;;;;5115328;28;20557;-79
2022/12/29 12:40:43;;;;;;;24.35;10.15;;;;;;;;;;5116335;28;20473;-79
2022/12/29 12:43:18;;;;;;;25.90;10.30;;;;;;;;;;5097982;28;20027;-78
2022/12/29 12:45:43;;;;;;;28.48;11.20;;;;;;;;;;5116403;28;20092;-79
2022/12/29 12:48:25;;;;;;;32.58;12.23;;;;;;;;;;5116425;28;20491;-78
2022/12/29 12:50:57;;;;;;;25.42;10.75;;;;;;;;;;5116213;28;20019;-79
2022/12/29 12:53:25;;;;;;;25.85;11.70;;;;;;;;;;5115125;28;20068;-79
2022/12/29 12:55:59;;;;;;;23.75;11.50;;;;;;;;;;5114943;28;20040;-78
2022/12/29 12:58:52;;;;;;;26.15;11.40;;;;;;;;;;5097926;28;20500;-79
2022/12/29 13:01:27;;;;;;;25.70;10.55;;;;;;;;;;5114865;28;20039;-79
2022/12/29 13:03:59;;;;;;;25.50;10.65;;;;;;;;;;5114718;28;20034;-77
2022/12/29 13:06:42;;;;;;;28.13;11.10;;;;;;;;;;5097667;28;20435;-78
2022/12/29 13:09:36;;;;;;;28.77;10.32;;;;;;;;;;5115223;28;20020;-78
2022/12/29 13:12:18;;;;;;;22.80;9.70;;;;;;;;;;5113672;28;20027;-78
2022/12/29 13:15:03;;;;;;;24.25;9.48;;;;;;;;;;5097503;28;20050;-78
2022/12/29 13:18:12;;;;;;;17.92;8.90;;;;;;;;;;5097465;28;20032;-77
2022/12/29 13:20:43;;;;;;;20.85;8.38;;;;;;;;;;5113681;28;20122;-78
2022/12/29 13:23:17;;;;;;;19.35;7.55;;;;;;;;;;5115894;28;20032;-78
2022/12/29 13:25:53;;;;;;;15.30;7.32;;;;;;;;;;5115729;28;20028;-78
2022/12/29 13:28:41;;;;;;;22.48;7.63;;;;;;;;;;5097445;28;20046;-78
2022/12/29 13:31:18;;;;;;;18.25;7.47;;;;;;;;;;5109609;28;20516;-78
2022/12/29 13:33:59;;;;;;;15.55;7.43;;;;;;;;;;5115683;28;20038;-78
2022/12/29 13:36:30;;;;;;;17.23;7.05;;;;;;;;;;5097049;28;20130;-78
2022/12/29 13:39:06;;;;;;;15.40;7.28;;;;;;;;;;5114065;28;20027;-78
2022/12/29 13:41:40;;;;;;;16.23;6.47;;;;;;;;;;5114005;28;20094;-78
2022/12/29 13:44:12;;;;;;;16.52;6.07;;;;;;;;;;5096873;28;20016;-78
2022/12/29 13:46:41;;;;;;;14.05;5.82;;;;;;;;;;5113937;28;20385;-78
2022/12/29 13:49:21;;;;;;;14.23;5.13;;;;;;;;;;5096714;28;20081;-78
2022/12/29 13:51:53;;;;;;;9.82;5.00;;;;;;;;;;5115332;28;20027;-78
2022/12/29 13:54:40;;;;;;;12.90;5.32;;;;;;;;;;5096489;28;20023;-78
2022/12/29 13:57:30;;;;;;;12.07;4.68;;;;;;;;;;5114067;28;20049;-78
2022/12/29 14:00:16;;;;;;;12.65;5.00;;;;;;;;;;5114852;28;20038;-78
2022/12/29 14:02:44;;;;;;;13.15;4.85;;;;;;;;;;5109659;28;20054;-77
2022/12/29 14:05:22;;;;;;;12.25;4.70;;;;;;;;;;5112866;28;20077;-78
2022/12/29 14:08:11;;;;;;;12.02;4.93;;;;;;;;;;5114272;28;20023;-77
2022/12/29 14:10:38;;;;;;;10.93;4.68;;;;;;;;;;5113704;28;20092;-78
2022/12/29 14:13:12;;;;;;;10.30;4.30;;;;;;;;;;5112779;28;20080;-77
2022/12/29 14:15:41;;;;;;;;;;;;;;;;;;5097849;28;20015;-77
2022/12/29 14:18:22;;;;;;;10.20;4.35;;;;;;;;;;5095931;28;19919;-78
2022/12/29 14:21:15;;;;;;;12.20;4.30;;;;;;;;;;5095408;28;20123;-77
2022/12/29 14:23:43;;;;;;;12.77;4.20;;;;;;;;;;5097265;28;20023;-78
2022/12/29 14:26:31;;;;;;;9.70;3.63;;;;;;;;;;5113807;28;20027;-75
2022/12/29 14:29:38;;;;;;;7.85;3.63;;;;;;;;;;5101620;28;20397;-75
2022/12/29 14:32:25;;;;;;;6.57;3.25;;;;;;;;;;5100737;28;20118;-79
2022/12/29 14:34:53;;;;;;;8.70;3.40;;;;;;;;;;5111692;28;20051;-78
2022/12/29 14:37:25;;;;;;;7.05;3.20;;;;;;;;;;5095361;28;20024;-78
2022/12/29 14:40:08;;;;;;;4.05;2.58;;;;;;;;;;5095390;28;20020;-77
2022/12/29 14:42:34;;;;;;;8.18;2.88;;;;;;;;;;5112112;28;20036;-78
2022/12/29 14:45:14;;;;;;;7.97;3.28;;;;;;;;;;5094840;28;20035;-78
2022/12/29 14:47:41;;;;;;;6.85;3.13;;;;;;;;;;5097556;28;20501;-78
2022/12/29 14:50:18;;;;;;;8.18;2.85;;;;;;;;;;5113435;28;20027;-79
2022/12/29 14:52:47;;;;;;;6.25;2.42;;;;;;;;;;5112104;28;20020;-79
2022/12/29 14:55:16;;;;;;;9.73;2.40;;;;;;;;;;5111531;28;20051;-77
2022/12/29 14:57:43;;;;;;;4.30;2.40;;;;;;;;;;5113245;28;20071;-79
2022/12/29 15:00:17;;;;;;;4.28;2.00;;;;;;;;;;5112216;28;20015;-79
2022/12/29 15:02:50;;;;;;;7.07;2.40;;;;;;;;;;5113217;28;20038;-79
2022/12/29 15:05:52;;;;;;;3.50;1.95;;;;;;;;;;5094381;28;20024;-78
2022/12/29 15:08:21;;;;;;;5.00;2.08;;;;;;;;;;5094844;28;20027;-77
2022/12/29 15:10:53;;;;;;;4.15;2.42;;;;;;;;;;5094915;28;20039;-79
2022/12/29 15:13:33;;;;;;;5.00;2.33;;;;;;;;;;5094726;28;20454;-77
2022/12/29 15:15:59;;;;;;;5.40;2.22;;;;;;;;;;5094913;28;20023;-79
2022/12/29 15:18:34;;;;;;;3.47;1.70;;;;;;;;;;5111723;28;20027;-77
2022/12/29 15:21:04;;;;;;;3.78;1.88;;;;;;;;;;5094894;28;20106;-76
2022/12/29 15:23:32;;;;;;;4.57;1.85;;;;;;;;;;5094589;28;20484;-79
2022/12/29 15:26:00;;;;;;;5.15;2.10;;;;;;;;;;5112857;28;20031;-79
2022/12/29 15:28:27;;;;;;;2.13;1.67;;;;;;;;;;5113023;28;20056;-78
2022/12/29 15:31:13;;;;;;;3.55;1.83;;;;;;;;;;5112075;28;20028;-79
2022/12/29 15:33:53;;;;;;;4.18;1.90;;;;;;;;;;5095490;28;20495;-79
2022/12/29 15:36:24;;;;;;;2.55;1.73;;;;;;;;;;5096608;28;20115;-79
2022/12/29 15:38:50;;;;;;;7.05;1.90;;;;;;;;;;5115745;28;20076;-79
2022/12/29 15:42:00;;;;;;;4.32;2.05;;;;;;;;;;5098479;28;20020;-79